createdAt,value
2023-01-30T00:04:40.411Z,18.50
2023-01-30T00:09:43.173Z,17.90
2023-01-30T00:14:45.966Z,22.90
2023-01-30T00:19:48.720Z,15.30
2023-01-30T00:24:51.611Z,21.00
2023-01-30T00:30:02.396Z,21.60
2023-01-30T00:35:07.277Z,23.20
2023-01-30T00:40:10.975Z,20.00
2023-01-30T00:45:32.339Z,18.20
2023-01-30T00:50:42.615Z,22.50
2023-01-30T00:55:46.114Z,17.40
2023-01-30T01:00:49.950Z,19.70
2023-01-30T01:05:52.733Z,20.10
2023-01-30T01:10:55.783Z,23.30
2023-01-30T01:15:58.566Z,13.60
2023-01-30T01:21:01.479Z,18.30
2023-01-30T01:26:04.742Z,20.80
2023-01-30T01:31:10.034Z,23.50
2023-01-30T01:36:20.065Z,10.70
2023-01-30T01:41:32.461Z,21.60
2023-01-30T01:46:35.155Z,12.20
2023-01-30T01:51:42.941Z,17.30
2023-01-30T01:56:48.384Z,21.30
2023-01-30T02:01:54.405Z,12.00
2023-01-30T02:06:57.367Z,23.60
2023-01-30T02:12:04.222Z,19.70
2023-01-30T02:17:07.064Z,17.20
2023-01-30T02:22:21.582Z,17.40
2023-01-30T02:27:46.392Z,12.30
2023-01-30T02:33:13.685Z,14.40
2023-01-30T02:38:35.421Z,19.30
2023-01-30T02:43:44.210Z,17.40
2023-01-30T02:48:52.677Z,20.10
2023-01-30T02:53:56.060Z,19.20
2023-01-30T02:59:06.141Z,18.00
2023-01-30T03:04:26.699Z,17.40
2023-01-30T03:09:50.718Z,15.00
2023-01-30T03:15:04.353Z,16.60
2023-01-30T03:20:08.444Z,17.90
2023-01-30T03:25:18.343Z,15.10
2023-01-30T03:30:22.167Z,14.90
2023-01-30T03:35:25.134Z,19.90
2023-01-30T03:40:27.976Z,15.90
2023-01-30T03:45:30.788Z,14.10
2023-01-30T03:50:33.584Z,18.20
2023-01-30T03:55:36.374Z,14.70
2023-01-30T04:00:39.148Z,17.00
2023-01-30T04:05:45.024Z,16.50
2023-01-30T04:10:47.803Z,19.20
2023-01-30T04:15:50.715Z,17.10
2023-01-30T04:20:53.489Z,17.00
2023-01-30T04:25:56.249Z,17.00
2023-01-30T04:30:59.157Z,18.50
2023-01-30T04:36:04.129Z,19.00
2023-01-30T04:41:07.173Z,14.90
2023-01-30T04:46:09.929Z,19.50
2023-01-30T04:51:12.881Z,19.20
2023-01-30T04:56:15.700Z,17.40
2023-01-30T05:01:31.676Z,18.20
2023-01-30T05:06:36.670Z,19.80
2023-01-30T05:11:39.511Z,18.10
2023-01-30T05:16:42.272Z,14.70
2023-01-30T05:21:45.060Z,17.20
2023-01-30T05:26:47.912Z,19.50
2023-01-30T05:31:50.728Z,20.40
2023-01-30T05:36:53.524Z,21.20
2023-01-30T05:41:56.331Z,11.80
2023-01-30T05:46:59.157Z,19.10
2023-01-30T05:52:01.980Z,13.00
2023-01-30T05:57:04.951Z,16.80
2023-01-30T06:02:07.777Z,12.00
2023-01-30T06:07:10.576Z,13.10
2023-01-30T06:12:13.306Z,15.50
2023-01-30T06:17:16.167Z,17.70
2023-01-30T06:22:18.955Z,17.10
2023-01-30T06:27:21.724Z,15.00
2023-01-30T06:32:24.522Z,17.70
2023-01-30T06:37:27.370Z,14.60
2023-01-30T06:42:30.170Z,14.00
2023-01-30T06:47:33.028Z,15.40
2023-01-30T06:52:40.086Z,16.70
2023-01-30T07:02:47.521Z,13.90
2023-01-30T07:07:50.380Z,13.60
2023-01-30T07:12:53.774Z,13.90
2023-01-30T07:17:56.741Z,16.10
2023-01-30T07:23:03.001Z,13.10
2023-01-30T07:28:05.841Z,14.40
2023-01-30T07:33:08.947Z,14.60
2023-01-30T07:38:11.788Z,13.40
2023-01-30T07:43:14.656Z,15.30
2023-01-30T07:48:22.085Z,16.10
2023-01-30T07:53:25.023Z,11.40
2023-01-30T07:58:29.939Z,10.30
2023-01-30T08:03:34.544Z,8.90
2023-01-30T08:08:37.475Z,13.90
2023-01-30T08:13:40.219Z,10.30
2023-01-30T08:18:43.079Z,9.30
2023-01-30T08:23:45.884Z,9.10
2023-01-30T08:28:49.234Z,8.00
2023-01-30T08:33:52.058Z,9.00
2023-01-30T08:38:54.952Z,11.10
2023-01-30T08:43:57.676Z,8.00
2023-01-30T08:49:00.455Z,15.00
2023-01-30T08:54:03.193Z,11.20
2023-01-30T08:59:06.153Z,10.30
2023-01-30T09:04:08.999Z,10.00
2023-01-30T09:09:11.834Z,9.90
2023-01-30T09:14:20.246Z,8.70
2023-01-30T09:19:24.488Z,10.00
2023-01-30T09:24:28.180Z,9.20
2023-01-30T09:29:31.308Z,10.50
2023-01-30T09:34:34.229Z,10.70
2023-01-30T09:39:37.147Z,9.40
2023-01-30T09:45:02.110Z,10.40
2023-01-30T09:50:21.868Z,9.70
2023-01-30T09:55:30.068Z,11.80
2023-01-30T10:00:37.359Z,12.00
2023-01-30T10:05:50.260Z,9.60
2023-01-30T10:11:09.900Z,11.40
2023-01-30T10:16:26.037Z,14.20
2023-01-30T10:21:47.825Z,15.00
2023-01-30T10:26:51.472Z,11.20
2023-01-30T10:32:05.192Z,10.80
2023-01-30T10:37:14.025Z,13.20
2023-01-30T10:42:39.311Z,15.60
2023-01-30T10:47:59.885Z,21.10
2023-01-30T10:53:35.630Z,17.40
2023-01-30T10:58:57.331Z,17.90
2023-01-30T11:04:04.579Z,23.10
2023-01-30T11:09:09.114Z,22.50
2023-01-30T11:14:12.932Z,20.50
2023-01-30T11:19:21.527Z,18.40
2023-01-30T11:24:31.972Z,16.30
2023-01-30T11:29:37.543Z,13.50
2023-01-30T11:35:01.081Z,22.70
2023-01-30T11:40:31.400Z,17.30
2023-01-30T11:45:46.656Z,14.90
2023-01-30T11:51:01.478Z,13.70
2023-01-30T11:56:20.400Z,15.40
2023-01-30T12:01:28.525Z,13.70
2023-01-30T12:06:37.059Z,12.50
2023-01-30T12:11:42.581Z,14.50
2023-01-30T12:16:54.397Z,17.30
2023-01-30T12:22:26.409Z,12.00
2023-01-30T12:28:11.128Z,13.30
2023-01-30T12:38:47.468Z,14.90
2023-01-30T12:44:23.343Z,10.40
2023-01-30T12:49:32.324Z,12.40
2023-01-30T12:54:54.880Z,10.80
2023-01-30T13:00:09.671Z,11.40
2023-01-30T13:05:41.986Z,12.80
2023-01-30T13:11:29.201Z,11.30
2023-01-30T13:17:00.980Z,14.90
2023-01-30T13:22:19.837Z,12.40
2023-01-30T13:27:25.248Z,14.60
2023-01-30T13:32:41.795Z,15.30
2023-01-30T13:37:49.053Z,14.70
2023-01-30T13:43:07.214Z,10.90
2023-01-30T13:48:35.197Z,9.50
2023-01-30T13:53:40.015Z,12.10
2023-01-30T13:58:56.502Z,12.40
2023-01-30T14:04:38.817Z,13.50
2023-01-30T14:09:45.997Z,10.80
2023-01-30T14:14:58.206Z,15.80
2023-01-30T14:20:20.177Z,12.60
2023-01-30T14:25:22.960Z,15.10
2023-01-30T14:30:31.776Z,18.00
2023-01-30T14:35:34.595Z,13.20
2023-01-30T14:41:00.420Z,16.30
2023-01-30T14:46:09.031Z,17.10
2023-01-30T14:51:31.190Z,19.10
2023-01-30T14:56:59.116Z,15.20
2023-01-30T15:02:02.004Z,13.90
2023-01-30T15:07:17.918Z,12.90
2023-01-30T15:12:20.731Z,14.10
2023-01-30T15:17:39.179Z,15.30
2023-01-30T15:23:07.956Z,17.90
2023-01-30T15:28:27.634Z,14.40
2023-01-30T15:33:32.142Z,13.20
2023-01-30T15:38:35.451Z,13.70
2023-01-30T15:44:21.769Z,16.20
2023-01-30T15:50:01.727Z,16.40
2023-01-30T15:55:05.391Z,14.70
2023-01-30T16:00:17.661Z,12.10
2023-01-30T16:05:25.348Z,14.60
2023-01-30T16:10:30.619Z,15.00
2023-01-30T16:15:40.961Z,14.90
2023-01-30T16:21:01.735Z,16.90
2023-01-30T16:26:08.195Z,21.20
2023-01-30T16:31:12.062Z,21.20
2023-01-30T16:36:20.711Z,17.20
2023-01-30T16:41:44.942Z,15.10
2023-01-30T16:46:49.125Z,12.80
2023-01-30T16:52:02.427Z,11.30
2023-01-30T16:57:05.499Z,15.70
2023-01-30T17:02:26.364Z,17.10
2023-01-30T17:07:36.397Z,7.70
2023-01-30T17:12:43.486Z,8.90
2023-01-30T17:22:53.950Z,10.10
2023-01-30T17:33:00.428Z,10.60
2023-01-30T17:38:06.011Z,7.80
2023-01-30T17:43:11.515Z,12.70
2023-01-30T17:48:14.472Z,9.40
2023-01-30T17:53:17.736Z,12.60
2023-01-30T17:58:21.871Z,13.50
2023-01-30T18:03:25.425Z,11.30
2023-01-30T18:08:28.214Z,11.10
2023-01-30T18:13:31.081Z,10.60
2023-01-30T18:18:34.119Z,17.20
2023-01-30T18:23:38.677Z,14.60
2023-01-30T18:28:45.447Z,10.80
2023-01-30T18:33:48.318Z,15.30
2023-01-30T18:38:51.937Z,15.60
2023-01-30T18:43:56.856Z,14.00
2023-01-30T18:48:59.768Z,16.30
2023-01-30T18:54:02.903Z,19.10
2023-01-30T18:59:07.180Z,20.20
2023-01-30T19:04:11.551Z,19.60
2023-01-30T19:09:16.249Z,22.20
2023-01-30T19:14:20.954Z,21.50
2023-01-30T19:19:23.763Z,21.50
2023-01-30T19:24:26.752Z,21.30
2023-01-30T19:29:29.604Z,22.10
2023-01-30T19:34:32.431Z,22.50
2023-01-30T19:39:35.443Z,19.10
2023-01-30T19:44:41.108Z,24.40
2023-01-30T19:49:44.066Z,21.80
2023-01-30T19:54:47.565Z,20.30
2023-01-30T19:59:50.462Z,22.20
2023-01-30T20:04:53.377Z,21.20
2023-01-30T20:09:56.674Z,8.20
2023-01-30T20:14:59.607Z,12.80
2023-01-30T20:20:03.254Z,10.70
2023-01-30T20:25:07.178Z,9.20
2023-01-30T20:30:11.032Z,8.80
2023-01-30T20:35:14.078Z,10.60
2023-01-30T20:40:19.571Z,9.80
2023-01-30T20:45:23.444Z,11.70
2023-01-30T20:50:27.707Z,11.20
2023-01-30T20:55:30.583Z,13.30
2023-01-30T21:00:33.461Z,8.30
2023-01-30T21:05:36.253Z,10.70
2023-01-30T21:10:46.707Z,11.20
2023-01-30T21:15:59.627Z,8.40
2023-01-30T21:21:05.976Z,8.80
2023-01-30T21:26:13.176Z,6.40
2023-01-30T21:31:22.589Z,7.90
2023-01-30T21:36:26.459Z,6.50
2023-01-30T21:41:56.321Z,11.50
2023-01-30T21:46:59.602Z,6.90
2023-01-30T21:52:02.365Z,7.20
2023-01-30T21:57:05.154Z,8.10
2023-01-30T22:02:09.909Z,7.00
2023-01-30T22:07:12.769Z,7.50
2023-01-30T22:12:15.576Z,7.80
2023-01-30T22:17:18.476Z,8.50
2023-01-30T22:22:25.281Z,7.40
2023-01-30T22:27:28.082Z,8.90
2023-01-30T22:32:30.882Z,9.70
2023-01-30T22:37:33.685Z,9.50
2023-01-30T22:42:36.439Z,6.50
2023-01-30T22:47:39.507Z,6.20
2023-01-30T22:52:42.420Z,5.10
2023-01-30T22:57:45.205Z,11.20
2023-01-30T23:02:48.168Z,6.70
2023-01-30T23:07:51.560Z,5.90
2023-01-30T23:13:06.452Z,5.80
2023-01-30T23:18:32.609Z,6.60
2023-01-30T23:23:35.593Z,5.00
2023-01-30T23:28:39.058Z,7.60
2023-01-30T23:33:42.485Z,6.50
2023-01-30T23:38:48.929Z,5.30
2023-01-30T23:43:52.336Z,9.90
2023-01-30T23:48:58.524Z,8.00
2023-01-30T23:54:05.133Z,9.90
2023-01-30T23:59:08.445Z,10.80
